Terminal Aerodrome Forecast
Issued by NWS Upton, NY

Home | Current Version | Previous Version | Text Only | Print | Product List | Glossary On
Versions: 1 2 3 4 5 6 7 8 9 10 11 12 13 14 15 16 17 18 19 20 21 22 23 24 25 26 27 28 29 30 31
224
FTUS41 KOKX 252006 AAA
TAFISP
TAF AMD
KISP 252006Z 2520/2618 02011KT P6SM SCT050 SCT080 BKN150
     FM252300 05010KT 6SM BR OVC015
     FM260400 05012KT P6SM OVC025
     FM260600 05012KT P6SM SCT025 OVC035
     FM261400 08013KT 4SM -RA BR OVC025=

USA.gov is the U.S. government's official web portal to all federal, state and local government web resources and services.